Weather at Stoney Creek (buffalo) airfield

Public forecast

Using degrees Celsius for public forecast. Weather courtesy of forecast.io.

Closest aviation weather report (METAR) to Stoney Creek (buffalo) airfield

Closest report is Melbourne International Airport, 80.0 nm (148.2 km) NW.

2024/07/24 21:30 (retrieved 33 minutes ago)

YMML 242130Z 02017KT CAVOK 11/06 Q1010 OVC110

Closest aviation forecast (TAF) to Stoney Creek (buffalo) airfield

Closest forecast is Melbourne International Airport, 80.0 nm (148.2 km) NW.

2024/07/24 21:53 (retrieved 10 minutes ago)

TAF YMML 242012Z 2421/2600 36014KT 9999 -RA SCT020 BKN045 FM250300 35012KT 9999 NSW SCT030 FM251100 34016KT 9999 -SHRA SCT025 FM251500 35010KT 9999 NSW SCT035